Date,TemperatureHighF,TemperatureAvgF,TemperatureLowF,DewpointHighF,DewpointAvgF,DewpointLowF,HumidityHigh,HumidityAvg,HumidityLow,PressureMaxIn,PressureMinIn,WindSpeedMaxMPH,WindSpeedAvgMPH,GustSpeedMaxMPH,PrecipitationSumIn
2013-1-1,38,32,20,27,20,9,72,60,49,29.91,29.69,8,3,15,0.00
2013-1-2,30,22,14,17,10,3,71,62,53,30.08,29.87,6,2,12,0.00
2013-1-3,25,16,6,11,2,-4,68,54,32,30.11,29.97,3,2,7,0.00
2013-1-4,39,30,18,25,20,11,84,68,53,29.97,29.78,7,2,12,0.00
2013-1-5,42,34,26,26,23,19,83,63,44,30.23,29.82,6,2,8,0.00
2013-1-6,43,34,26,29,26,22,88,74,58,30.20,29.91,5,1,10,0.00
2013-1-7,38,33,25,30,24,18,89,71,46,30.37,29.93,5,1,15,0.00
2013-1-8,47,36,24,30,28,22,93,74,51,30.34,30.23,6,2,9,0.00
2013-1-9,44,37,27,36,30,24,92,76,59,30.38,29.97,5,1,10,0.00
2013-1-10,46,42,35,29,25,24,65,52,41,30.51,30.00,8,4,12,0.00
2013-1-11,40,35,28,36,29,24,93,77,64,30.49,30.20,2,0,3,0.10
2013-1-12,44,41,38,42,40,36,96,95,93,30.21,30.09,1,0,3,0.01
2013-1-13,52,47,42,50,46,41,97,95,90,30.12,29.96,3,1,6,0.00
2013-1-14,61,52,42,52,44,28,94,75,41,30.21,29.82,6,2,9,0.00
2013-1-15,42,39,35,29,26,24,69,61,53,30.28,30.17,3,1,6,0.00
2013-1-16,35,33,31,32,30,23,94,87,62,30.22,29.79,2,0,4,0.26
2013-1-17,42,35,30,34,28,14,94,77,50,30.06,29.80,5,2,8,0.00
2013-1-18,30,23,18,15,3,-4,54,41,29,30.43,30.03,6,3,10,0.00
2013-1-19,49,38,22,33,23,7,76,56,39,30.36,29.86,7,3,13,0.00
2013-1-20,54,42,30,33,26,11,73,55,35,29.89,29.51,9,4,18,0.00
2013-1-21,29,26,22,21,12,6,88,56,38,30.08,29.77,6,2,16,0.00
2013-1-22,25,21,14,21,10,0,90,64,37,30.05,29.73,6,2,11,0.01
2013-1-23,17,12,8,2,-5,-9,63,45,31,30.11,30.04,6,3,10,0.00
2013-1-24,21,12,4,-5,-8,-10,57,42,26,30.20,30.03,6,3,12,0.00
2013-1-25,24,17,10,14,-5,-10,82,39,24,30.28,30.04,6,2,9,0.00
2013-1-26,25,18,13,14,5,-5,84,59,32,30.21,29.98,5,2,11,0.00
2013-1-27,31,21,13,5,2,-4,66,44,27,30.44,30.20,6,3,13,0.00
2013-1-28,32,26,20,28,14,3,93,65,35,30.43,29.99,3,1,6,0.12
2013-1-29,34,31,27,33,28,24,94,90,85,30.17,29.99,2,1,3,0.02
2013-1-30,61,50,34,57,48,33,97,93,85,30.13,29.42,8,3,17,0.04
2013-1-31,61,49,32,58,38,15,93,68,40,29.56,28.93,10,6,18,0.46
2013-2-1,34,30,23,18,10,5,56,44,32,30.06,29.56,7,4,12,0.00
2013-2-2,30,25,19,13,8,4,59,48,39,30.23,30.02,5,2,9,0.00
2013-2-3,27,25,23,23,21,13,88,82,55,30.03,29.71,4,1,6,0.00
2013-2-4,30,25,22,22,13,7,89,61,38,29.92,29.69,9,4,14,0.01
2013-2-5,29,26,22,24,15,10,89,63,50,30.00,29.91,4,1,5,0.01
2013-2-6,39,31,26,27,20,6,90,68,41,30.26,29.90,6,2,12,0.00
2013-2-7,30,27,22,17,5,0,65,39,30,30.50,30.27,4,2,9,0.00
2013-2-8,34,30,19,31,26,17,96,86,65,30.46,29.57,11,6,18,0.45
2013-2-9,21,19,15,20,17,13,93,92,91,30.16,29.54,9,6,15,0.25
2013-2-10,33,23,11,32,21,9,97,93,90,30.37,30.16,4,1,7,0.00
2013-2-11,44,31,19,43,30,17,97,95,93,30.33,29.58,2,0,5,0.19
2013-2-12,45,39,33,38,31,27,97,75,54,29.85,29.58,8,3,13,0.00
2013-2-13,44,36,28,29,26,23,82,69,52,29.85,29.65,4,1,6,0.00
2013-2-14,44,37,31,29,24,21,80,61,41,29.96,29.67,4,1,6,0.00
2013-2-15,52,40,30,36,32,24,93,75,50,29.97,29.86,5,2,10,0.00
2013-2-16,39,35,31,32,28,20,92,76,55,29.92,29.69,4,2,8,0.03
2013-2-17,31,23,18,21,14,3,90,69,46,29.68,29.36,8,5,19,0.08
2013-2-18,32,24,15,6,3,1,56,42,27,30.13,29.65,8,4,15,0.00
2013-2-19,48,37,24,43,25,5,95,63,42,30.14,29.55,4,2,10,0.33
2013-2-20,43,33,27,41,21,11,95,63,42,29.75,29.49,8,4,12,0.01
2013-2-21,34,29,25,17,15,12,67,56,44,30.16,29.75,7,4,14,0.00
2013-2-22,39,32,25,26,22,17,79,66,44,30.36,30.16,5,2,10,0.00
2013-2-23,39,35,31,33,30,25,94,80,70,30.31,29.89,4,1,6,0.16
2013-2-24,38,35,32,37,33,30,95,94,91,29.89,29.66,3,1,8,0.30
2013-2-25,41,36,31,33,30,26,94,82,66,30.22,29.87,3,1,5,0.00
2013-2-26,44,37,29,34,30,27,94,77,57,30.32,30.13,6,2,10,0.00
2013-2-27,42,40,38,40,38,32,95,92,77,30.13,29.53,11,6,18,1.24
2013-2-28,46,39,35,39,36,33,95,87,72,29.61,29.49,2,1,3,0.00
2013-3-1,42,39,34,36,31,28,92,75,64,29.65,29.50,5,2,9,0.00
2013-3-2,44,38,33,30,28,26,78,67,58,29.65,29.59,4,2,7,0.00
2013-3-3,42,36,33,33,29,26,91,76,68,29.62,29.52,4,2,6,0.00
2013-3-4,41,35,31,29,25,22,82,68,53,29.71,29.55,6,4,12,0.00
2013-3-5,45,38,32,34,28,24,86,69,55,30.04,29.71,5,2,11,0.00
2013-3-6,40,38,35,36,33,30,91,85,69,30.08,30.01,12,7,26,0.13
2013-3-7,37,33,31,32,30,29,93,90,75,30.04,29.97,9,5,16,0.12
2013-3-8,42,34,30,33,29,24,95,81,53,30.12,29.92,11,3,15,0.41
2013-3-9,44,36,31,32,27,21,91,69,53,30.32,30.12,7,2,13,0.00
2013-3-10,41,35,28,33,30,26,93,83,70,30.39,30.29,4,2,7,0.00
2013-3-11,54,43,36,41,37,33,92,79,56,30.30,30.12,4,2,8,0.00
2013-3-12,58,50,43,53,48,41,95,91,78,30.13,29.69,5,2,10,0.34
2013-3-13,53,45,37,52,32,22,95,64,33,29.75,29.65,6,3,12,0.00
2013-3-14,37,32,24,25,16,8,68,52,40,29.82,29.68,7,4,14,0.00
2013-3-15,41,31,21,28,14,6,72,50,26,29.85,29.61,7,4,10,0.00
2013-3-16,40,35,29,27,16,8,74,47,29,29.85,29.64,5,2,6,0.00
2013-3-17,38,32,26,18,12,5,65,44,25,30.29,29.85,6,2,10,0.00
2013-3-18,39,30,20,27,10,2,90,47,26,30.44,30.22,5,2,9,0.00
2013-3-19,36,33,29,35,32,26,94,93,89,30.22,29.58,10,5,21,0.85
2013-3-20,39,32,26,27,22,20,90,68,48,29.79,29.67,7,3,13,0.00
2013-3-21,37,31,26,29,24,17,89,74,49,29.80,29.59,3,1,5,0.00
2013-3-22,40,34,28,28,22,18,89,60,42,29.72,29.58,6,3,14,0.00
2013-3-23,44,36,29,25,21,18,74,55,38,29.76,29.61,7,4,13,0.00
2013-3-24,47,39,32,31,24,21,74,56,42,29.79,29.69,5,2,11,0.00
2013-3-25,44,38,33,34,30,26,79,72,59,29.74,29.49,8,3,18,0.00
2013-3-26,50,42,36,31,26,20,78,54,31,29.75,29.50,4,2,9,0.00
2013-3-27,55,44,32,32,25,22,68,49,31,29.84,29.70,5,2,10,0.00
2013-3-28,48,43,38,36,34,30,88,72,51,29.98,29.83,5,2,7,0.01
2013-3-29,57,47,36,36,33,30,83,59,38,30.01,29.92,5,2,9,0.00
2013-3-30,57,48,38,34,25,14,76,45,20,30.06,29.96,5,2,13,0.00
2013-3-31,61,47,31,41,28,23,81,53,24,30.09,29.71,7,2,12,0.01
2013-4-1,62,48,36,48,38,13,94,70,37,29.76,29.46,6,4,12,0.16
2013-4-2,41,36,30,19,14,11,55,42,30,29.92,29.76,8,5,15,0.00
2013-4-3,46,38,31,20,14,10,62,39,24,30.13,29.90,7,5,14,0.00
2013-4-4,57,43,30,27,17,11,59,38,17,30.28,30.02,5,3,9,0.00
2013-4-5,61,47,38,31,27,20,71,50,24,30.03,29.58,5,3,10,0.00
2013-4-6,47,40,33,28,12,2,60,35,17,30.30,29.85,7,3,12,0.00
2013-4-7,55,44,30,41,29,16,80,57,33,30.30,29.97,7,3,13,0.00
2013-4-8,65,53,44,44,40,34,92,65,32,30.05,29.92,6,2,6,0.00
2013-4-9,72,56,47,53,45,39,93,67,39,30.05,29.82,6,2,13,0.08
2013-4-10,65,52,47,49,46,42,93,79,57,29.98,29.81,5,2,8,0.21
2013-4-11,52,48,44,48,41,28,94,78,49,30.10,29.78,4,2,7,0.07
2013-4-12,44,40,38,38,36,30,94,85,58,30.13,29.76,10,5,16,0.43
2013-4-13,54,44,36,41,37,34,92,78,51,29.89,29.72,6,2,8,0.03
2013-4-14,52,47,40,41,33,27,86,61,39,30.18,29.88,6,2,10,0.00
2013-4-15,57,46,34,40,34,29,82,63,40,30.36,30.18,7,2,10,0.00
2013-4-16,65,53,39,51,43,37,92,71,48,30.37,30.01,7,3,12,0.00
2013-4-17,67,60,52,53,38,28,84,48,25,30.28,30.01,5,3,10,0.00
2013-4-18,65,53,42,45,35,29,75,52,32,30.39,30.11,6,3,10,0.00
2013-4-19,75,64,53,63,58,45,95,81,59,30.11,29.62,7,4,14,0.00
2013-4-20,66,55,46,62,42,24,93,64,37,30.18,29.55,6,3,10,0.43
2013-4-21,53,44,35,30,23,19,66,45,26,30.64,30.19,5,3,9,0.00
2013-4-22,50,43,35,36,30,22,81,62,35,30.73,30.56,9,4,16,0.00
2013-4-23,43,42,40,41,38,32,94,87,69,30.56,30.10,6,4,11,0.03
2013-4-24,77,56,42,52,45,38,94,71,26,30.09,29.75,4,3,15,0.01
2013-4-25,65,57,49,53,37,23,91,53,21,30.22,29.79,5,2,9,0.04
2013-4-26,58,50,45,42,35,28,85,57,43,30.39,30.22,7,3,11,0.00
2013-4-27,63,53,40,42,38,34,92,61,36,30.38,30.24,5,2,8,0.00
2013-4-28,69,55,41,43,36,28,87,53,28,30.30,30.17,7,2,11,0.00
2013-4-29,70,58,47,48,38,25,86,52,25,30.24,30.15,3,1,8,0.00
2013-4-30,67,57,46,39,31,16,72,42,16,30.33,30.21,6,2,8,0.00
2013-5-1,66,56,42,40,35,29,84,49,25,30.43,30.33,5,2,9,0.00
2013-5-2,76,56,45,47,42,36,87,62,27,30.44,30.31,9,2,12,0.00
2013-5-3,58,51,44,45,41,39,85,70,55,30.49,30.34,7,3,13,0.00
2013-5-4,57,49,42,46,41,37,89,73,56,30.34,30.27,6,2,10,0.00
2013-5-5,57,49,39,42,40,37,92,73,53,30.30,30.22,6,2,11,0.00
2013-5-6,67,51,40,50,45,38,95,79,47,30.26,30.11,6,1,9,0.00
2013-5-7,77,63,46,59,52,44,93,70,46,30.14,30.04,5,1,9,0.00
2013-5-8,70,63,55,63,58,52,93,85,71,30.15,30.00,6,2,10,0.21
2013-5-9,68,60,58,62,58,56,97,93,74,30.01,29.84,4,1,7,0.54
2013-5-10,78,67,55,62,57,54,97,74,45,29.91,29.84,5,1,8,0.01
2013-5-11,72,65,59,63,59,55,92,83,70,29.87,29.65,3,1,6,0.07
2013-5-12,71,62,51,60,52,31,95,72,38,29.77,29.52,6,2,11,0.06
2013-5-13,59,52,45,36,31,27,60,46,32,29.99,29.77,5,2,9,0.00
2013-5-14,58,51,42,36,32,28,70,49,32,30.01,29.93,5,2,11,0.00
2013-5-15,67,54,39,52,40,31,89,65,31,30.02,29.64,3,1,5,0.01
2013-5-16,81,68,50,51,42,32,94,47,20,29.75,29.58,6,2,10,0.00
2013-5-17,70,61,54,46,42,36,71,50,31,30.18,29.76,5,2,15,0.00
2013-5-18,73,61,48,49,44,38,87,57,30,30.27,30.18,5,1,6,0.00
2013-5-19,73,58,50,55,51,46,94,77,46,30.31,30.19,6,1,8,0.08
2013-5-20,82,68,56,68,61,55,96,81,55,30.19,29.86,3,1,5,0.07
2013-5-21,79,63,52,66,58,50,95,86,63,29.98,29.81,7,2,10,0.15
2013-5-22,67,57,51,60,54,49,95,89,76,30.02,29.85,5,2,8,0.06
2013-5-23,76,66,55,69,62,54,97,89,75,29.89,29.76,4,1,7,0.10
2013-5-24,72,63,50,67,61,48,96,92,79,29.78,29.61,4,1,7,0.68
2013-5-25,52,48,42,50,46,40,96,93,89,29.77,29.66,5,2,10,0.26
2013-5-26,59,49,40,44,40,38,93,72,48,30.07,29.69,7,3,11,0.03
2013-5-27,72,59,42,48,40,32,91,55,25,30.13,30.02,5,2,10,0.00
2013-5-28,72,61,46,54,47,40,91,62,36,30.19,30.11,5,2,10,0.00
2013-5-29,70,63,59,65,60,53,95,89,76,30.16,29.95,3,0,5,0.90
2013-5-30,88,77,63,70,66,62,97,73,50,30.04,29.94,4,1,7,0.01
2013-5-31,94,82,67,71,67,63,92,63,38,30.03,29.87,3,1,6,0.00
2013-6-1,92,81,68,70,66,62,84,62,40,29.91,29.79,3,1,9,0.00
2013-6-2,90,79,69,71,67,64,87,67,43,29.82,29.67,5,2,8,0.00
2013-6-3,78,70,64,68,64,46,93,80,52,29.80,29.71,3,1,5,0.34
2013-6-4,72,64,53,47,45,42,67,50,38,30.05,29.77,5,2,7,0.00
2013-6-5,75,65,53,52,48,43,79,55,37,30.15,30.04,3,1,5,0.00
2013-6-6,76,66,56,55,50,46,81,59,39,30.15,30.05,4,1,7,0.00
2013-6-7,61,57,54,57,54,48,95,90,72,30.07,29.77,5,2,8,2.30
2013-6-8,79,64,54,65,58,53,96,82,61,29.95,29.58,4,2,9,0.57
2013-6-9,79,70,59,59,56,54,91,64,42,30.11,29.95,4,2,8,0.00
2013-6-10,70,64,58,60,57,54,94,80,58,30.16,29.98,5,2,8,0.64
2013-6-11,64,59,57,59,57,55,96,92,83,29.98,29.52,6,2,9,1.05
2013-6-12,70,63,57,59,56,54,96,78,58,29.77,29.52,7,2,11,0.02
2013-6-13,68,59,53,58,54,51,93,83,65,29.78,29.64,4,1,7,0.63
2013-6-14,74,61,52,58,54,50,95,79,49,29.72,29.60,5,2,8,1.07
2013-6-15,79,69,57,55,49,43,88,52,28,29.89,29.72,5,2,6,0.00
2013-6-16,77,68,55,63,55,48,81,64,42,29.90,29.66,2,1,7,0.00
2013-6-17,85,71,61,64,60,56,94,72,38,29.86,29.72,7,1,9,0.30
2013-6-18,76,64,60,64,60,58,95,87,62,29.90,29.83,6,1,8,0.48
2013-6-19,74,65,57,58,53,48,94,67,43,30.10,29.86,4,1,7,0.03
2013-6-20,79,69,54,57,52,47,91,59,35,30.22,30.10,3,1,4,0.00
2013-6-21,84,73,60,65,59,54,83,64,41,30.21,30.12,3,1,5,0.00
2013-6-22,85,74,63,65,60,57,80,64,43,30.17,30.06,3,1,6,0.00
2013-6-23,90,78,66,73,66,58,79,67,53,30.12,29.94,3,1,9,0.01
2013-6-24,93,81,71,74,70,68,94,72,47,29.98,29.82,5,1,6,0.20
2013-6-25,91,80,69,72,69,66,94,70,46,29.88,29.67,4,1,6,0.00
2013-6-26,85,77,71,72,69,67,89,77,61,29.79,29.66,3,1,5,0.00
2013-6-27,73,67,63,67,64,61,95,91,80,29.82,29.70,4,2,5,0.11
2013-6-28,82,71,62,74,68,61,97,88,69,29.71,29.43,4,2,7,0.22
2013-6-29,84,76,71,72,69,67,93,80,60,29.67,29.47,3,1,6,0.00
2013-6-30,86,78,70,73,70,67,91,79,64,29.88,29.67,2,1,6,0.00
2013-7-1,83,76,72,76,72,70,94,88,76,30.02,29.88,2,0,3,0.10
2013-7-2,85,75,65,74,70,61,91,84,67,30.16,30.02,5,1,8,0.00
2013-7-3,89,77,63,75,70,61,92,78,58,30.15,30.07,3,1,6,0.00
2013-7-4,92,84,74,76,74,71,92,73,55,30.14,30.03,3,1,6,0.00
2013-7-5,94,86,77,76,74,72,84,69,52,30.10,29.97,3,1,6,0.00
2013-7-6,91,84,76,75,72,66,87,68,50,30.02,29.91,5,2,8,0.00
2013-7-7,92,82,73,76,71,65,86,71,54,29.97,29.85,3,1,6,0.01
2013-7-8,86,78,70,76,72,66,92,82,69,30.00,29.84,5,2,12,0.01
2013-7-9,74,69,65,68,65,63,94,87,79,30.05,29.99,3,1,6,0.00
2013-7-10,86,75,67,75,70,65,96,87,68,30.02,29.74,3,1,5,0.08
2013-7-11,82,77,72,74,72,68,95,86,72,29.87,29.72,2,0,4,0.10
2013-7-12,76,72,68,70,62,55,92,71,52,30.14,29.87,5,3,10,0.00
2013-7-13,78,71,67,70,66,63,94,85,76,30.25,30.14,3,2,5,0.02
2013-7-14,91,80,70,75,71,68,96,76,48,30.25,30.15,4,1,6,0.01
2013-7-15,91,83,74,75,72,70,91,72,51,30.15,30.04,3,1,7,0.00
2013-7-16,94,83,73,73,69,66,86,63,44,30.11,30.03,4,1,7,0.00
2013-7-17,95,85,74,75,71,68,86,66,42,30.11,29.94,3,1,5,0.00
2013-7-18,93,84,77,76,72,67,85,69,45,29.95,29.88,5,2,8,0.00
2013-7-19,98,87,77,78,75,70,90,68,44,29.90,29.66,5,1,8,0.00
2013-7-20,94,86,79,78,74,66,86,68,48,29.74,29.58,4,1,6,0.00
2013-7-21,82,76,72,68,65,61,88,69,54,29.93,29.74,5,2,8,0.01
2013-7-22,81,73,68,70,68,65,93,83,62,29.95,29.83,5,2,8,0.00
2013-7-23,80,73,70,75,71,67,96,93,81,29.83,29.48,4,1,5,1.10
2013-7-24,86,78,68,74,68,56,97,74,55,29.91,29.52,4,1,7,0.00
2013-7-25,67,62,59,59,55,50,94,79,63,30.06,29.91,4,1,7,0.69
2013-7-26,73,66,60,68,63,58,95,90,83,30.02,29.89,4,1,6,0.60
2013-7-27,84,73,61,69,64,58,93,74,49,30.01,29.93,3,1,5,0.00
2013-7-28,82,73,67,72,68,64,94,85,71,29.97,29.90,4,1,6,0.02
2013-7-29,84,73,68,74,68,64,95,85,62,29.98,29.90,5,0,6,0.27
2013-7-30,82,73,62,68,61,55,95,67,41,30.04,29.97,4,1,7,0.00
2013-7-31,82,74,64,65,60,56,85,64,42,30.09,29.98,3,1,6,0.00
2013-8-1,83,73,64,67,63,61,91,73,51,30.00,29.83,3,1,5,0.00
2013-8-2,82,73,65,69,63,59,95,74,45,29.83,29.73,4,1,10,0.42
2013-8-3,80,72,66,65,63,61,89,74,55,29.81,29.72,3,1,7,0.00
2013-8-4,80,71,62,61,58,54,82,64,42,29.84,29.71,4,1,9,0.00
2013-8-5,76,67,57,55,49,42,83,55,30,30.00,29.84,5,2,7,0.00
2013-8-6,78,68,55,56,52,49,84,59,39,30.10,30.00,4,1,7,0.00
2013-8-7,80,70,58,62,56,50,90,64,36,30.15,30.06,3,1,5,0.00
2013-8-8,81,72,66,71,66,56,92,81,69,30.09,29.95,2,0,5,0.06
2013-8-9,76,73,72,74,71,69,96,93,89,29.98,29.70,2,0,5,1.03
2013-8-10,83,75,66,72,62,55,96,68,41,29.96,29.74,5,2,9,0.01
2013-8-11,80,70,58,59,56,51,88,61,42,30.04,29.94,4,1,6,0.00
2013-8-12,82,73,62,63,59,55,89,65,43,29.99,29.86,3,1,5,0.00
2013-8-13,75,70,66,68,64,62,88,82,66,29.88,29.64,2,0,3,0.00
2013-8-14,75,68,62,63,55,51,91,66,47,29.92,29.62,6,2,14,0.00
2013-8-15,76,67,56,56,53,48,86,62,39,30.07,29.92,4,1,7,0.00
2013-8-16,80,69,56,59,55,52,89,64,40,30.15,30.07,3,1,6,0.00
2013-8-17,79,70,60,61,58,56,85,66,50,30.23,30.15,3,1,7,0.00
2013-8-18,81,71,62,64,60,57,88,69,46,30.23,30.04,2,0,5,0.00
2013-8-19,82,73,60,64,60,56,91,67,42,30.04,29.89,3,1,8,0.00
2013-8-20,86,77,67,66,62,58,82,63,40,30.03,29.93,3,1,6,0.00
2013-8-21,88,78,65,67,64,61,88,65,44,30.09,29.96,3,1,5,0.00
2013-8-22,87,77,67,73,68,63,89,75,51,29.98,29.77,3,1,5,0.00
2013-8-23,79,73,67,69,60,49,90,65,45,30.07,29.77,4,2,7,0.00
2013-8-24,75,67,57,52,48,42,78,53,31,30.29,30.08,4,1,7,0.00
2013-8-25,83,70,56,57,53,48,86,57,30,30.32,30.14,3,1,5,0.00
2013-8-26,81,73,66,67,62,57,81,70,55,30.15,29.82,5,1,6,0.00
2013-8-27,81,74,69,70,68,65,94,81,65,29.85,29.77,4,1,7,0.05
2013-8-28,83,72,65,68,65,62,93,79,56,29.93,29.80,4,1,8,0.00
2013-8-29,67,65,63,65,62,58,93,89,83,30.03,29.90,5,2,7,0.00
2013-8-30,83,72,63,68,64,58,87,77,59,29.99,29.77,3,1,5,0.00
2013-8-31,82,75,69,74,70,67,93,86,74,29.80,29.73,2,0,6,0.00
2013-9-1,79,74,71,75,71,67,96,91,83,29.85,29.75,1,0,3,0.52
2013-9-2,82,75,71,75,72,69,96,90,73,29.82,29.66,2,0,4,0.07
2013-9-3,83,75,66,72,68,60,95,82,64,29.76,29.64,3,1,6,0.00
2013-9-4,80,71,60,61,57,54,89,65,41,29.87,29.75,4,1,6,0.00
2013-9-5,70,65,57,62,55,42,91,73,38,30.10,29.81,3,1,7,0.06
2013-9-6,69,60,49,48,44,39,80,58,37,30.21,30.06,3,1,4,0.00
2013-9-7,79,65,50,57,50,46,85,62,35,30.06,29.81,3,1,5,0.00
2013-9-8,76,66,55,62,53,40,86,64,38,30.06,29.70,6,2,9,0.00
2013-9-9,70,60,47,51,45,42,86,60,39,30.20,30.05,2,1,4,0.00
2013-9-10,76,67,55,70,62,50,93,84,79,30.12,29.99,2,0,5,0.07
2013-9-11,95,82,69,77,72,68,96,75,47,30.02,29.88,3,1,6,0.00
2013-9-12,88,78,69,75,71,66,93,78,59,29.92,29.63,4,1,5,0.78
2013-9-13,78,69,61,69,65,56,96,85,65,29.71,29.51,4,1,10,0.12
2013-9-14,67,62,55,55,53,51,85,74,63,30.02,29.71,4,2,7,0.00
2013-9-15,71,61,50,54,50,46,91,69,43,30.13,30.01,3,1,5,0.00
2013-9-16,68,59,50,56,50,39,86,74,59,30.21,29.98,4,1,8,0.01
2013-9-17,62,53,42,46,40,35,84,63,43,30.40,30.22,4,1,9,0.00
2013-9-18,73,59,44,50,45,41,91,65,32,30.30,30.10,3,1,6,0.00
2013-9-19,78,64,49,56,52,46,91,67,40,30.10,29.98,2,0,3,0.00
2013-9-20,79,66,52,58,54,50,92,71,36,30.05,29.95,4,1,5,0.00
2013-9-21,76,67,57,66,60,54,94,81,59,29.99,29.68,3,1,7,0.00
2013-9-22,71,66,55,67,57,47,95,76,51,29.79,29.56,5,2,11,0.29
2013-9-23,62,55,47,47,43,40,80,65,51,29.97,29.79,5,2,14,0.00
2013-9-24,67,55,44,46,43,40,85,66,43,29.96,29.77,4,2,8,0.00
2013-9-25,66,57,48,50,47,44,89,72,54,29.94,29.84,4,1,8,0.00
2013-9-26,66,59,54,51,49,46,81,70,53,30.08,29.94,3,1,6,0.00
2013-9-27,65,59,53,54,51,50,90,76,60,30.22,30.08,3,1,6,0.00
2013-9-28,72,60,51,56,52,49,93,77,52,30.29,30.22,5,1,8,0.00
2013-9-29,66,56,48,54,49,45,96,81,47,30.23,30.09,3,1,6,0.00
2013-9-30,66,57,50,53,50,47,95,81,51,30.09,29.93,3,1,4,0.00
2013-10-1,76,62,49,56,52,47,93,72,44,29.93,29.80,3,1,7,0.00
2013-10-2,79,68,55,62,58,52,92,73,53,29.90,29.77,5,1,7,0.00
2013-10-3,77,67,57,58,52,46,88,61,35,30.04,29.90,3,1,4,0.00
2013-10-4,65,61,54,58,54,50,90,80,70,30.05,29.99,2,0,3,0.05
2013-10-5,69,63,60,59,57,56,91,81,66,30.08,30.01,3,1,4,0.00
2013-10-6,62,58,55,58,56,53,96,93,84,30.19,30.07,3,1,7,0.40
2013-10-7,77,67,58,71,63,55,97,89,74,30.09,29.77,4,1,14,0.12
2013-10-8,65,59,51,55,45,40,83,62,40,30.33,29.85,4,2,9,0.00
2013-10-9,61,53,45,47,44,40,87,71,55,30.44,30.33,5,2,8,0.00
2013-10-10,62,54,45,53,49,43,93,84,71,30.33,30.14,4,1,7,0.00
2013-10-11,70,59,52,56,50,27,95,74,21,30.14,30.06,3,1,5,0.00
2013-10-12,60,56,52,56,52,48,93,87,80,30.35,30.11,6,2,9,0.00
2013-10-13,60,53,45,50,47,42,92,81,61,30.41,30.33,4,1,9,0.00
2013-10-14,64,52,38,50,43,36,95,74,37,30.38,30.22,2,0,3,0.00
2013-10-15,68,58,50,54,50,47,92,77,57,30.23,30.14,4,1,8,0.00
2013-10-16,62,56,50,55,52,48,95,87,77,30.14,29.87,2,0,5,0.00
2013-10-17,73,62,53,61,57,52,96,85,66,29.88,29.68,2,0,5,0.00
2013-10-18,67,62,52,61,52,43,95,71,47,29.87,29.58,6,2,11,0.04
2013-10-19,67,56,43,48,44,40,90,66,41,29.95,29.72,2,0,3,0.00
2013-10-20,61,55,45,51,41,32,92,62,36,29.99,29.66,6,2,9,0.02
2013-10-21,66,53,40,45,41,36,88,65,40,30.09,29.97,4,1,8,0.00
2013-10-22,68,55,43,53,46,39,92,72,52,29.96,29.67,3,1,5,0.00
2013-10-23,52,48,40,39,36,32,88,64,47,29.77,29.56,2,1,5,0.00
2013-10-24,54,46,39,36,31,25,79,56,34,29.86,29.61,5,2,8,0.00
2013-10-25,50,42,34,35,30,27,86,62,43,30.13,29.86,5,1,9,0.00
2013-10-26,56,44,31,37,31,26,89,63,33,30.14,29.85,5,1,8,0.00
2013-10-27,55,49,43,41,36,29,86,62,41,30.04,29.79,6,2,8,0.01
2013-10-28,58,46,36,36,32,26,85,60,40,30.33,30.03,7,2,10,0.00
2013-10-29,48,40,32,34,27,20,89,63,32,30.43,30.32,2,0,5,0.00
2013-10-30,53,42,34,42,37,31,90,84,64,30.35,30.17,3,0,5,0.03
2013-10-31,63,50,35,59,47,33,94,89,81,30.22,29.76,3,1,7,0.01
2013-11-1,71,65,59,63,58,54,94,80,65,29.76,29.42,6,3,14,0.05
2013-11-2,66,57,48,54,46,40,92,69,39,29.69,29.54,4,1,5,0.00
2013-11-3,52,43,34,48,31,16,86,65,37,30.39,29.68,4,1,6,0.01
2013-11-4,42,35,29,26,20,13,80,56,32,30.68,30.39,4,1,8,0.00
2013-11-5,50,39,28,35,28,23,83,66,45,30.70,30.49,3,0,4,0.00
2013-11-6,61,51,40,50,42,33,86,72,51,30.49,30.01,4,1,6,0.00
2013-11-7,67,54,41,58,50,34,93,84,69,30.01,29.64,5,2,8,0.24
2013-11-8,49,41,34,36,28,23,78,62,49,30.07,29.78,6,2,17,0.01
2013-11-9,46,40,32,30,25,22,71,56,39,30.18,30.01,5,2,11,0.00
2013-11-10,57,46,41,45,37,30,93,71,51,30.00,29.70,6,2,10,0.05
2013-11-11,52,46,40,33,29,25,66,53,35,30.07,29.82,6,2,10,0.00
2013-11-12,49,37,28,40,26,17,90,67,54,30.17,29.85,6,2,10,0.11
2013-11-13,37,30,25,18,16,12,73,57,39,30.27,30.15,5,2,10,0.01
2013-11-14,51,40,29,26,22,17,63,50,34,30.15,30.01,6,2,11,0.00
2013-11-15,62,47,33,35,24,16,68,44,17,30.17,30.07,4,1,6,0.00
2013-11-16,59,47,38,35,30,24,79,56,26,30.28,30.15,2,0,5,0.00
2013-11-17,57,47,35,54,43,31,96,85,70,30.28,29.81,3,0,5,0.04
2013-11-18,65,60,49,62,48,33,97,69,43,29.80,29.49,6,2,10,0.17
2013-11-19,49,41,32,33,23,17,58,50,40,30.24,29.61,7,4,11,0.00
2013-11-20,41,34,28,18,16,13,65,48,32,30.60,30.25,5,2,11,0.00
2013-11-21,48,37,25,31,22,17,73,56,34,30.62,30.35,4,1,7,0.00
2013-11-22,47,44,41,46,41,31,95,88,68,30.35,29.79,1,0,3,0.18
2013-11-23,48,41,31,47,28,16,95,61,34,29.88,29.75,6,4,9,0.00
2013-11-24,31,25,21,19,5,-4,69,44,25,30.17,29.76,9,6,20,0.00
2013-11-25,33,26,18,18,4,-6,57,40,20,30.36,30.17,5,2,8,0.00
2013-11-26,43,37,31,41,24,18,94,60,45,30.32,30.01,4,1,9,0.10
2013-11-27,63,52,38,61,50,34,96,93,85,30.00,29.18,6,3,10,1.26
2013-11-28,38,32,26,34,18,7,84,57,36,30.41,29.42,8,4,16,0.00
2013-11-29,34,28,23,18,12,4,70,53,33,30.72,30.41,4,1,7,0.00
2013-11-30,34,27,17,24,16,9,74,64,53,30.78,30.41,2,1,6,0.00
2013-12-1,39,36,32,37,33,24,95,88,71,30.41,29.98,2,0,4,0.10
2013-12-2,40,38,37,38,37,35,96,94,92,29.99,29.90,2,0,4,0.01
2013-12-3,48,39,35,38,35,32,95,85,60,29.92,29.82,3,1,5,0.00
2013-12-4,44,37,32,32,30,27,92,76,55,30.18,29.92,3,1,6,0.00
2013-12-5,51,42,33,50,38,29,96,86,77,30.19,29.89,2,0,4,0.00
2013-12-6,56,49,35,55,46,33,96,87,67,30.11,29.82,4,1,6,0.38
2013-12-7,40,35,30,34,28,21,94,78,59,30.43,30.04,5,2,8,0.07
2013-12-8,31,29,25,22,18,15,75,62,53,30.58,30.43,3,1,5,0.00
2013-12-9,40,34,26,39,31,16,95,90,55,30.48,29.87,3,1,5,0.34
2013-12-10,35,32,26,34,29,18,95,89,69,29.98,29.76,6,1,9,0.03
2013-12-11,32,27,23,21,20,18,82,74,60,30.20,29.98,6,2,9,0.00
2013-12-12,25,22,16,19,10,3,81,59,38,30.26,30.06,5,2,12,0.00
2013-12-13,30,23,16,18,12,4,74,64,50,30.38,29.99,6,2,9,0.00
2013-12-14,30,17,12,29,8,-3,94,67,48,30.60,30.12,7,2,11,0.17
2013-12-15,35,29,23,34,27,21,95,91,79,30.12,29.40,9,4,13,0.66
2013-12-16,28,25,19,23,16,10,86,68,48,30.19,29.73,5,2,10,0.00
2013-12-17,21,15,8,19,10,1,91,79,63,30.27,29.93,3,1,4,0.34
2013-12-18,34,26,17,23,20,14,89,79,61,30.06,29.85,4,2,8,0.00
2013-12-19,43,34,25,29,25,21,83,70,53,30.10,29.93,6,2,11,0.00
2013-12-20,54,42,33,38,33,28,86,71,52,30.10,29.87,3,1,7,0.00
2013-12-21,58,50,43,49,43,35,90,79,70,29.92,29.82,3,1,5,0.00
2013-12-22,54,43,35,52,42,34,96,94,89,29.99,29.77,5,1,9,0.00
2013-12-23,38,35,33,37,34,32,97,96,96,30.07,29.94,2,0,4,0.58
2013-12-24,38,34,28,37,23,18,96,67,50,30.17,30.02,4,2,8,0.01
2013-12-25,27,21,16,18,7,2,66,56,45,30.53,30.17,6,2,9,0.00
2013-12-26,34,27,19,30,22,9,91,80,66,30.49,30.07,3,0,5,0.03
2013-12-27,34,29,25,24,22,20,87,73,59,30.26,30.17,5,1,6,0.00
2013-12-28,47,36,27,29,26,22,84,70,48,30.20,29.97,5,1,7,0.00
2013-12-29,43,36,30,39,32,26,95,86,68,30.02,29.37,5,1,9,1.08
2013-12-30,43,34,20,37,25,10,94,72,42,30.14,29.48,7,2,11,0.00
2013-12-31,26,20,15,16,7,-3,75,57,45,30.17,30.00,4,1,6,0.00
2014-1-1,28,23,18,13,10,7,67,56,45,30.37,30.17,5,2,9,0.00
2014-1-2,23,14,2,17,10,-1,88,85,62,30.34,29.83,6,3,12,0.09